createdAt,value
2023-10-27T00:00:07.391Z,95.11
2023-10-27T00:01:09.457Z,95.23
2023-10-27T00:02:11.548Z,95.08
2023-10-27T00:03:13.623Z,94.74
2023-10-27T00:04:15.667Z,94.81
2023-10-27T00:05:17.680Z,94.85
2023-10-27T00:06:19.589Z,95.06
2023-10-27T00:07:21.580Z,94.55
2023-10-27T00:08:23.660Z,95.05
2023-10-27T00:09:26.783Z,94.74
2023-10-27T00:10:29.835Z,94.76
2023-10-27T00:11:31.996Z,94.81
2023-10-27T00:12:33.944Z,95.03
2023-10-27T00:13:35.908Z,95.21
2023-10-27T00:14:38.573Z,94.71
2023-10-27T00:15:40.498Z,94.94
2023-10-27T00:16:42.375Z,94.49
2023-10-27T00:17:46.026Z,94.92
2023-10-27T00:18:48.218Z,94.86
2023-10-27T00:19:50.266Z,94.64
2023-10-27T00:20:52.332Z,94.75
2023-10-27T00:21:54.249Z,94.33
2023-10-27T00:22:56.277Z,94.76
2023-10-27T00:23:58.198Z,94.41
2023-10-27T00:25:00.936Z,94.41
2023-10-27T00:26:03.812Z,94.57
2023-10-27T00:27:06.043Z,94.68
2023-10-27T00:28:07.970Z,94.72
2023-10-27T00:29:10.025Z,94.33
2023-10-27T00:30:12.747Z,94.44
2023-10-27T00:31:14.884Z,94.92
2023-10-27T00:32:16.813Z,94.52
2023-10-27T00:33:18.834Z,94.25
2023-10-27T00:34:21.089Z,94.81
2023-10-27T00:35:23.580Z,94.52
2023-10-27T00:36:25.653Z,94.90
2023-10-27T00:37:27.914Z,94.87
2023-10-27T00:38:31.672Z,94.75
2023-10-27T00:39:36.301Z,94.34
2023-10-27T00:40:38.177Z,94.60
2023-10-27T00:41:40.084Z,94.13
2023-10-27T00:42:43.009Z,94.39
2023-10-27T00:43:44.912Z,93.87
2023-10-27T00:44:46.942Z,94.51
2023-10-27T00:45:51.885Z,94.60
2023-10-27T00:46:55.310Z,94.58
2023-10-27T00:47:57.683Z,94.42
2023-10-27T00:48:59.532Z,94.30
2023-10-27T00:50:02.779Z,94.49
2023-10-27T00:51:08.889Z,94.88
2023-10-27T00:52:13.290Z,94.84
2023-10-27T00:53:24.760Z,94.36
2023-10-27T00:54:27.995Z,94.31
2023-10-27T00:55:31.061Z,94.34
2023-10-27T00:56:33.085Z,94.51
2023-10-27T00:57:37.619Z,95.23
2023-10-27T00:58:40.353Z,94.82
2023-10-27T00:59:43.843Z,94.69
2023-10-27T01:00:46.950Z,94.83
2023-10-27T01:01:48.854Z,95.47
2023-10-27T01:02:50.774Z,95.91
2023-10-27T01:03:53.036Z,95.34
2023-10-27T01:04:54.964Z,95.41
2023-10-27T01:05:57.070Z,95.54
2023-10-27T01:06:59.095Z,95.24
2023-10-27T01:08:01.599Z,95.67
2023-10-27T01:09:03.892Z,95.58
2023-10-27T01:10:06.496Z,95.61
2023-10-27T01:11:09.853Z,95.69
2023-10-27T01:12:12.182Z,95.38
2023-10-27T01:13:13.993Z,95.31
2023-10-27T01:14:16.068Z,95.10
2023-10-27T01:15:19.516Z,94.86
2023-10-27T01:16:23.649Z,95.02
2023-10-27T01:17:25.776Z,95.01
2023-10-27T01:18:27.815Z,95.02
2023-10-27T01:19:29.839Z,95.02
2023-10-27T01:20:31.943Z,95.27
2023-10-27T01:21:34.187Z,95.09
2023-10-27T01:22:56.356Z,94.99
2023-10-27T01:23:58.333Z,94.81
2023-10-27T01:25:00.744Z,95.10
2023-10-27T01:26:04.906Z,95.14
2023-10-27T01:27:06.875Z,94.84
2023-10-27T01:28:10.642Z,94.93
2023-10-27T01:29:12.679Z,94.59
2023-10-27T01:30:14.675Z,94.45
2023-10-27T01:31:17.309Z,94.49
2023-10-27T01:32:19.624Z,94.75
2023-10-27T01:33:23.204Z,94.47
2023-10-27T01:34:25.304Z,94.56
2023-10-27T01:35:27.204Z,94.97
2023-10-27T01:36:29.058Z,94.58
2023-10-27T01:37:31.158Z,94.63
2023-10-27T01:38:33.091Z,94.65
2023-10-27T01:39:35.044Z,94.41
2023-10-27T01:40:37.248Z,94.52
2023-10-27T01:41:39.722Z,94.71
2023-10-27T01:42:41.744Z,94.34
2023-10-27T01:43:43.825Z,94.51
2023-10-27T01:44:45.822Z,94.97
2023-10-27T01:45:47.695Z,94.89
2023-10-27T01:46:49.582Z,94.75
2023-10-27T01:47:51.614Z,94.55
2023-10-27T01:48:54.484Z,94.60
2023-10-27T01:49:56.853Z,94.54
2023-10-27T01:50:58.720Z,94.99
2023-10-27T01:52:00.788Z,95.10
2023-10-27T01:53:02.754Z,94.91
2023-10-27T01:54:04.925Z,94.86
2023-10-27T01:55:07.010Z,95.40
2023-10-27T01:56:08.927Z,94.90
2023-10-27T01:57:11.085Z,95.31
2023-10-27T01:58:13.177Z,95.66
2023-10-27T01:59:15.257Z,95.26
2023-10-27T02:00:17.472Z,95.45
2023-10-27T02:01:19.998Z,95.93
2023-10-27T02:02:22.056Z,96.10
2023-10-27T02:03:23.896Z,95.92
2023-10-27T02:04:27.340Z,96.59
2023-10-27T02:05:29.379Z,95.91
2023-10-27T02:06:31.696Z,95.88
2023-10-27T02:07:33.629Z,95.85
2023-10-27T02:08:40.011Z,96.30
2023-10-27T02:09:42.271Z,95.64
2023-10-27T02:10:44.511Z,96.11
2023-10-27T02:11:47.816Z,95.65
2023-10-27T02:12:49.729Z,95.82
2023-10-27T02:13:51.635Z,95.32
2023-10-27T02:14:53.747Z,95.35
2023-10-27T02:15:55.699Z,95.21
2023-10-27T02:16:57.819Z,95.03
2023-10-27T02:17:59.704Z,95.34
2023-10-27T02:19:01.741Z,95.25
2023-10-27T02:20:04.003Z,95.24
2023-10-27T02:21:06.062Z,95.28
2023-10-27T02:22:07.969Z,95.07
2023-10-27T02:23:10.472Z,95.05
2023-10-27T02:24:12.266Z,95.38
2023-10-27T02:25:14.541Z,95.39
2023-10-27T02:26:16.655Z,95.48
2023-10-27T02:27:18.623Z,95.10
2023-10-27T02:28:20.530Z,95.41
2023-10-27T02:29:23.257Z,95.44
2023-10-27T02:30:25.211Z,95.33
2023-10-27T02:31:27.411Z,95.01
2023-10-27T02:32:29.379Z,95.27
2023-10-27T02:33:31.469Z,95.24
2023-10-27T02:34:33.402Z,95.30
2023-10-27T02:35:35.471Z,95.17
2023-10-27T02:36:37.415Z,95.09
2023-10-27T02:37:40.423Z,95.08
2023-10-27T02:38:42.369Z,95.00
2023-10-27T02:39:44.574Z,95.51
2023-10-27T02:40:47.009Z,95.54
2023-10-27T02:41:49.009Z,95.38
2023-10-27T02:42:51.353Z,95.72
2023-10-27T02:43:53.245Z,95.40
2023-10-27T02:44:55.179Z,94.93
2023-10-27T02:46:04.411Z,95.05
2023-10-27T02:47:06.587Z,95.31
2023-10-27T02:48:08.704Z,95.28
2023-10-27T02:49:10.752Z,94.99
2023-10-27T02:50:12.797Z,95.55
2023-10-27T02:51:17.096Z,95.46
2023-10-27T02:52:19.082Z,95.23
2023-10-27T02:53:21.548Z,95.70
2023-10-27T02:54:23.369Z,95.45
2023-10-27T02:55:26.148Z,95.14
2023-10-27T02:56:28.166Z,95.23
2023-10-27T02:57:30.197Z,95.00
2023-10-27T02:58:32.229Z,95.10
2023-10-27T02:59:36.097Z,94.79
2023-10-27T03:00:44.292Z,94.83
2023-10-27T03:01:46.728Z,95.45
2023-10-27T03:02:49.633Z,94.98
2023-10-27T03:03:51.556Z,95.52
2023-10-27T03:04:55.775Z,95.37
2023-10-27T03:05:57.746Z,95.74
2023-10-27T03:06:59.675Z,95.28
2023-10-27T03:08:01.898Z,95.85
2023-10-27T03:09:04.094Z,95.19
2023-10-27T03:10:07.932Z,95.38
2023-10-27T03:11:10.591Z,95.81
2023-10-27T03:12:15.903Z,95.79
2023-10-27T03:13:17.932Z,95.46
2023-10-27T03:14:19.817Z,95.48
2023-10-27T03:15:22.133Z,95.55
2023-10-27T03:16:24.113Z,95.78
2023-10-27T03:17:27.349Z,95.57
2023-10-27T03:18:29.581Z,95.98
2023-10-27T03:19:31.910Z,95.81
2023-10-27T03:20:34.184Z,96.04
2023-10-27T03:21:36.301Z,96.00
2023-10-27T03:22:38.149Z,95.83
2023-10-27T03:23:40.125Z,95.94
2023-10-27T03:24:42.146Z,95.98
2023-10-27T03:25:44.114Z,96.03
2023-10-27T03:26:46.372Z,95.57
2023-10-27T03:27:48.338Z,95.89
2023-10-27T03:28:50.626Z,95.64
2023-10-27T03:29:52.910Z,95.28
2023-10-27T03:30:55.144Z,95.60
2023-10-27T03:31:57.061Z,95.10
2023-10-27T03:32:59.071Z,95.00
2023-10-27T03:34:01.741Z,94.91
2023-10-27T03:35:04.541Z,95.45
2023-10-27T03:36:07.368Z,94.78
2023-10-27T03:37:09.330Z,95.34
2023-10-27T03:38:12.308Z,95.43
2023-10-27T03:39:14.325Z,95.25
2023-10-27T03:40:16.271Z,94.94
2023-10-27T03:41:18.362Z,95.08
2023-10-27T03:42:20.288Z,94.87
2023-10-27T03:43:23.210Z,94.71
2023-10-27T03:44:25.307Z,95.18
2023-10-27T03:45:27.140Z,94.70
2023-10-27T03:46:29.063Z,94.85
2023-10-27T03:47:31.031Z,95.19
2023-10-27T03:48:32.988Z,95.51
2023-10-27T03:49:35.112Z,95.27
2023-10-27T03:50:37.784Z,95.42
2023-10-27T03:51:39.966Z,95.60
2023-10-27T03:52:42.402Z,95.24
2023-10-27T03:53:44.266Z,95.69
2023-10-27T03:54:46.225Z,95.48
2023-10-27T03:55:55.283Z,95.79
2023-10-27T03:56:57.366Z,95.49
2023-10-27T03:58:16.094Z,95.18
2023-10-27T03:59:20.465Z,95.31
2023-10-27T04:00:22.608Z,95.61
2023-10-27T04:01:24.643Z,95.49
2023-10-27T04:02:26.737Z,95.45
2023-10-27T04:03:29.567Z,94.98
2023-10-27T04:04:31.657Z,95.26
2023-10-27T04:05:33.755Z,94.92
2023-10-27T04:06:35.881Z,95.29
2023-10-27T04:07:37.756Z,95.11
2023-10-27T04:08:39.741Z,95.03
2023-10-27T04:09:41.710Z,94.84
2023-10-27T04:10:43.689Z,94.82
2023-10-27T04:11:45.705Z,95.22
2023-10-27T04:12:47.989Z,94.85
2023-10-27T04:13:49.935Z,95.36
2023-10-27T04:14:51.843Z,95.44
2023-10-27T04:15:53.703Z,94.87
2023-10-27T04:16:55.637Z,95.17
2023-10-27T04:17:57.840Z,95.01
2023-10-27T04:19:00.158Z,94.66
2023-10-27T04:20:02.102Z,95.36
2023-10-27T04:21:04.504Z,95.24
2023-10-27T04:22:07.099Z,95.00
2023-10-27T04:23:10.503Z,94.95
2023-10-27T04:24:12.460Z,95.27
2023-10-27T04:25:14.416Z,94.88
2023-10-27T04:26:17.131Z,94.86
2023-10-27T04:27:19.130Z,94.78
2023-10-27T04:28:23.661Z,95.27
2023-10-27T04:29:26.102Z,94.79
2023-10-27T04:30:28.180Z,94.75
2023-10-27T04:31:30.192Z,95.24
2023-10-27T04:32:33.183Z,95.34
2023-10-27T04:33:38.001Z,95.15
2023-10-27T04:34:40.357Z,95.34
2023-10-27T04:35:42.207Z,94.77
2023-10-27T04:36:45.433Z,94.90
2023-10-27T04:37:47.389Z,94.70
2023-10-27T04:38:49.411Z,95.34
2023-10-27T04:39:51.678Z,95.09
2023-10-27T04:40:54.089Z,95.03
2023-10-27T04:41:56.054Z,95.42
2023-10-27T04:42:59.740Z,95.05
2023-10-27T04:44:01.784Z,95.54
2023-10-27T04:45:04.151Z,96.04
2023-10-27T04:46:06.118Z,95.93
2023-10-27T04:47:08.142Z,96.63
2023-10-27T04:48:10.093Z,96.19
2023-10-27T04:49:12.242Z,96.99
2023-10-27T04:50:14.410Z,97.36
2023-10-27T04:51:16.435Z,97.49
2023-10-27T04:52:18.503Z,97.54
2023-10-27T04:53:20.503Z,97.69
2023-10-27T04:54:22.512Z,97.69
2023-10-27T04:55:24.430Z,98.10
2023-10-27T04:56:27.540Z,98.06
2023-10-27T04:57:30.945Z,98.00
2023-10-27T04:58:32.914Z,98.05
2023-10-27T04:59:35.014Z,98.03
2023-10-27T05:00:37.042Z,98.08
2023-10-27T05:01:39.335Z,97.78
2023-10-27T05:02:42.658Z,97.66
2023-10-27T05:03:44.624Z,97.68
2023-10-27T05:04:46.563Z,97.79
2023-10-27T05:05:48.589Z,98.37
2023-10-27T05:06:50.648Z,97.95
2023-10-27T05:07:52.523Z,98.29
2023-10-27T05:08:54.722Z,98.23
2023-10-27T05:09:56.713Z,98.66
2023-10-27T05:10:58.736Z,98.15
2023-10-27T05:12:00.635Z,98.50
2023-10-27T05:13:02.597Z,98.45
2023-10-27T05:14:04.544Z,97.94
2023-10-27T05:15:06.985Z,97.96
2023-10-27T05:16:08.856Z,98.17
2023-10-27T05:17:10.817Z,97.92
2023-10-27T05:18:13.458Z,98.20
2023-10-27T05:19:16.711Z,98.35
2023-10-27T05:20:18.662Z,98.12
2023-10-27T05:21:21.256Z,98.29
2023-10-27T05:22:25.332Z,98.32
2023-10-27T05:23:27.328Z,98.47
2023-10-27T05:24:29.235Z,98.08
2023-10-27T05:25:31.168Z,98.19
2023-10-27T05:26:33.232Z,98.28
2023-10-27T05:27:35.453Z,98.43
2023-10-27T05:28:37.645Z,98.27
2023-10-27T05:29:39.581Z,98.03
2023-10-27T05:30:45.160Z,97.81
2023-10-27T05:31:48.014Z,97.81
2023-10-27T05:32:49.937Z,97.60
2023-10-27T05:33:51.926Z,97.66
2023-10-27T05:34:54.651Z,97.96
2023-10-27T05:35:56.712Z,97.43
2023-10-27T05:36:58.861Z,97.58
2023-10-27T05:38:03.670Z,97.56
2023-10-27T05:39:05.583Z,97.50
2023-10-27T05:40:08.228Z,97.67
2023-10-27T05:41:10.160Z,98.12
2023-10-27T05:42:12.187Z,97.72
2023-10-27T05:43:18.720Z,98.01
2023-10-27T05:44:21.361Z,97.55
2023-10-27T05:45:23.378Z,97.62
2023-10-27T05:46:25.436Z,97.82
2023-10-27T05:47:27.382Z,97.42
2023-10-27T05:48:29.417Z,97.44
2023-10-27T05:49:31.321Z,97.31
2023-10-27T05:50:33.273Z,97.55
2023-10-27T05:51:36.683Z,97.91
2023-10-27T05:52:38.786Z,97.66
2023-10-27T05:53:40.795Z,97.60
2023-10-27T05:54:46.572Z,97.26
2023-10-27T05:55:50.210Z,97.72
2023-10-27T05:56:53.581Z,97.39
2023-10-27T05:57:55.635Z,97.30
2023-10-27T05:58:57.806Z,97.31
2023-10-27T05:59:59.721Z,97.32
2023-10-27T06:01:02.050Z,97.13
2023-10-27T06:02:14.502Z,97.46
2023-10-27T06:03:17.292Z,97.51
2023-10-27T06:04:19.878Z,97.04
2023-10-27T06:05:22.696Z,97.40
2023-10-27T06:06:25.719Z,97.36
2023-10-27T06:07:28.437Z,97.11
2023-10-27T06:08:30.366Z,97.55
2023-10-27T06:09:32.747Z,97.01
2023-10-27T06:10:34.526Z,97.41
2023-10-27T06:11:36.552Z,97.14
2023-10-27T06:12:39.026Z,97.08
2023-10-27T06:13:41.585Z,97.40
2023-10-27T06:14:45.966Z,97.13
2023-10-27T06:15:48.212Z,97.10
2023-10-27T06:16:50.219Z,96.98
2023-10-27T06:17:52.148Z,96.79
2023-10-27T06:18:54.430Z,97.01
2023-10-27T06:20:05.534Z,96.87
2023-10-27T06:21:18.223Z,96.56
2023-10-27T06:22:20.429Z,97.04
2023-10-27T06:23:23.041Z,97.01
2023-10-27T06:24:25.071Z,97.14
2023-10-27T06:25:27.366Z,96.70
2023-10-27T06:26:29.455Z,96.87
2023-10-27T06:27:31.750Z,96.97
2023-10-27T06:28:36.342Z,96.43
2023-10-27T06:29:38.651Z,96.69
2023-10-27T06:30:40.706Z,96.68
2023-10-27T06:31:42.800Z,96.56
2023-10-27T06:32:45.123Z,96.90
2023-10-27T06:33:46.984Z,96.89
2023-10-27T06:34:48.961Z,96.48
2023-10-27T06:35:50.997Z,96.62
2023-10-27T06:36:56.728Z,96.52
2023-10-27T06:38:00.830Z,96.97
2023-10-27T06:39:02.851Z,96.62
2023-10-27T06:40:06.272Z,97.04
2023-10-27T06:41:08.392Z,96.83
2023-10-27T06:42:10.357Z,96.83
2023-10-27T06:43:12.310Z,96.81
2023-10-27T06:44:14.228Z,97.16
2023-10-27T06:45:16.217Z,97.09
2023-10-27T06:46:18.249Z,97.28
2023-10-27T06:47:23.185Z,97.05
2023-10-27T06:48:25.816Z,97.33
2023-10-27T06:49:27.897Z,97.17
2023-10-27T06:50:29.935Z,97.18
2023-10-27T06:51:32.190Z,97.44
2023-10-27T06:52:35.627Z,97.85
2023-10-27T06:53:38.095Z,97.94
2023-10-27T06:54:39.991Z,97.88
2023-10-27T06:55:42.764Z,98.49
2023-10-27T06:56:44.699Z,98.36
2023-10-27T06:57:46.731Z,98.58
2023-10-27T06:58:48.748Z,98.67
2023-10-27T06:59:50.788Z,98.45
2023-10-27T07:00:52.860Z,98.55
2023-10-27T07:01:55.618Z,98.76
2023-10-27T07:02:58.081Z,98.79
2023-10-27T07:04:00.221Z,98.96
2023-10-27T07:05:02.404Z,98.80
2023-10-27T07:06:05.309Z,98.16
2023-10-27T07:07:21.457Z,98.73
2023-10-27T07:08:28.986Z,98.38
2023-10-27T07:09:30.977Z,98.48
2023-10-27T07:10:33.378Z,98.41
2023-10-27T07:11:35.555Z,97.88
2023-10-27T07:12:37.643Z,97.89
2023-10-27T07:13:39.777Z,98.26
2023-10-27T07:14:43.436Z,98.26
2023-10-27T07:15:45.759Z,98.09
2023-10-27T07:16:47.679Z,98.04
2023-10-27T07:17:50.011Z,97.85
2023-10-27T07:18:51.906Z,98.39
2023-10-27T07:19:53.885Z,97.74
2023-10-27T07:20:57.673Z,97.71
2023-10-27T07:21:59.548Z,97.79
2023-10-27T07:23:01.502Z,97.84
2023-10-27T07:24:03.454Z,97.73
2023-10-27T07:25:06.054Z,98.05
2023-10-27T07:26:16.227Z,98.13
2023-10-27T07:27:18.336Z,97.71
2023-10-27T07:28:20.541Z,98.18
2023-10-27T07:29:22.781Z,97.83
2023-10-27T07:30:24.771Z,97.26
2023-10-27T07:31:27.106Z,97.56
2023-10-27T07:32:29.218Z,97.91
2023-10-27T07:33:31.297Z,98.64
2023-10-27T07:34:33.316Z,98.26
2023-10-27T07:35:35.629Z,98.43
2023-10-27T07:36:37.434Z,98.46
2023-10-27T07:37:39.556Z,98.83
2023-10-27T07:38:42.292Z,98.75
2023-10-27T07:39:44.254Z,98.74
2023-10-27T07:40:46.250Z,98.92
2023-10-27T07:41:48.236Z,98.82
2023-10-27T07:42:50.127Z,98.63
2023-10-27T07:43:52.085Z,99.05
2023-10-27T07:44:55.940Z,98.83
2023-10-27T07:45:59.103Z,98.77
2023-10-27T07:47:00.988Z,99.32
2023-10-27T07:48:04.701Z,99.28
2023-10-27T07:49:09.766Z,99.54
2023-10-27T07:50:13.192Z,99.77
2023-10-27T07:51:15.117Z,100.00
2023-10-27T07:52:17.109Z,100.00
2023-10-27T07:53:19.183Z,100.00
2023-10-27T07:54:21.213Z,100.00
2023-10-27T07:55:23.423Z,100.00
2023-10-27T07:56:25.602Z,100.00
2023-10-27T07:57:28.506Z,100.00
2023-10-27T07:58:30.746Z,100.00
2023-10-27T07:59:33.432Z,100.00
2023-10-27T08:00:35.388Z,100.00
2023-10-27T08:01:37.500Z,100.00
2023-10-27T08:02:40.214Z,99.93
2023-10-27T08:03:42.821Z,100.00
2023-10-27T08:04:44.774Z,100.00
2023-10-27T08:05:46.764Z,100.00
2023-10-27T08:06:48.770Z,99.98
2023-10-27T08:07:50.904Z,99.82
2023-10-27T08:08:52.827Z,100.00
2023-10-27T08:09:55.000Z,99.63
2023-10-27T08:10:57.136Z,99.75
2023-10-27T08:11:59.201Z,99.80
2023-10-27T08:13:01.114Z,99.46
2023-10-27T08:14:05.710Z,99.49
2023-10-27T08:15:08.276Z,99.46
2023-10-27T08:16:10.438Z,99.87
2023-10-27T08:17:12.363Z,100.00
2023-10-27T08:18:17.016Z,99.75
2023-10-27T08:19:19.146Z,99.56
2023-10-27T08:20:21.217Z,99.79
2023-10-27T08:21:24.066Z,99.27
2023-10-27T08:22:26.045Z,99.27
2023-10-27T08:23:28.006Z,99.08
2023-10-27T08:24:30.062Z,98.67
2023-10-27T08:25:31.978Z,98.81
2023-10-27T08:26:34.429Z,98.24
2023-10-27T08:27:36.432Z,98.44
2023-10-27T08:28:38.471Z,97.55
2023-10-27T08:29:40.438Z,97.08
2023-10-27T08:30:44.620Z,97.27
2023-10-27T08:31:46.711Z,96.98
2023-10-27T08:32:48.740Z,96.95
2023-10-27T08:33:50.775Z,97.38
2023-10-27T08:34:52.929Z,96.93
2023-10-27T08:35:54.867Z,96.79
2023-10-27T08:36:57.334Z,97.17
2023-10-27T08:37:59.616Z,97.16
2023-10-27T08:39:01.658Z,96.97
2023-10-27T08:40:04.543Z,96.98
2023-10-27T08:41:09.125Z,97.18
2023-10-27T08:42:14.303Z,97.31
2023-10-27T08:43:16.451Z,96.89
2023-10-27T08:44:25.471Z,96.88
2023-10-27T08:45:29.274Z,96.68
2023-10-27T08:46:32.440Z,96.74
2023-10-27T08:47:35.860Z,96.31
2023-10-27T08:48:37.914Z,96.00
2023-10-27T08:49:40.085Z,96.03
2023-10-27T08:50:42.520Z,96.76
2023-10-27T08:51:45.187Z,96.54
2023-10-27T08:52:49.903Z,95.83
2023-10-27T08:53:53.278Z,96.37
2023-10-27T08:54:55.453Z,96.54
2023-10-27T08:55:59.669Z,96.53
2023-10-27T08:57:01.659Z,96.50
2023-10-27T08:58:03.669Z,96.76
2023-10-27T08:59:11.278Z,96.68
2023-10-27T09:00:13.747Z,96.95
2023-10-27T09:01:15.947Z,96.85
2023-10-27T09:02:30.317Z,96.63
2023-10-27T09:03:32.494Z,96.57
2023-10-27T09:04:35.569Z,96.77
2023-10-27T09:05:37.885Z,97.55
2023-10-27T09:06:41.740Z,97.64
2023-10-27T09:07:43.687Z,97.94
2023-10-27T09:08:46.663Z,97.89
2023-10-27T09:09:48.538Z,98.37
2023-10-27T09:10:52.239Z,98.07
2023-10-27T09:11:54.252Z,98.20
2023-10-27T09:13:01.171Z,98.14
2023-10-27T09:14:03.119Z,98.45
2023-10-27T09:15:10.043Z,98.14
2023-10-27T09:16:26.033Z,98.76
2023-10-27T09:17:28.262Z,98.93
2023-10-27T09:18:39.613Z,98.83
2023-10-27T09:19:42.878Z,98.76
2023-10-27T09:20:52.929Z,98.43
2023-10-27T09:21:55.632Z,98.43
2023-10-27T09:23:02.611Z,98.83
2023-10-27T09:24:04.964Z,98.80
2023-10-27T09:25:15.388Z,98.84
2023-10-27T09:26:18.052Z,98.40
2023-10-27T09:27:28.282Z,98.14
2023-10-27T09:28:30.872Z,97.83
2023-10-27T09:29:43.301Z,98.35
2023-10-27T09:30:45.574Z,98.41
2023-10-27T09:31:48.298Z,97.93
2023-10-27T09:32:50.462Z,98.29
2023-10-27T09:33:52.892Z,97.64
2023-10-27T09:35:10.950Z,97.64
2023-10-27T09:36:14.421Z,98.10
2023-10-27T09:37:17.827Z,97.51
2023-10-27T09:38:22.453Z,97.56
2023-10-27T09:39:25.384Z,97.90
2023-10-27T09:40:27.530Z,97.98
2023-10-27T09:41:29.696Z,97.87
2023-10-27T09:42:35.083Z,97.63
2023-10-27T09:43:43.097Z,98.01
2023-10-27T09:45:08.583Z,98.30
2023-10-27T09:46:12.681Z,97.81
2023-10-27T09:47:29.746Z,98.26
2023-10-27T09:48:32.823Z,98.07
2023-10-27T09:49:40.230Z,97.86
2023-10-27T09:50:48.029Z,97.94
2023-10-27T09:51:51.031Z,97.86
2023-10-27T09:53:00.187Z,97.76
2023-10-27T09:54:02.756Z,97.23
2023-10-27T09:55:15.189Z,97.22
2023-10-27T09:56:20.184Z,98.04
2023-10-27T09:57:22.696Z,97.67
2023-10-27T09:58:27.729Z,97.54
2023-10-27T09:59:34.242Z,98.31
2023-10-27T10:00:40.912Z,97.92
2023-10-27T10:01:43.059Z,98.24
2023-10-27T10:02:46.270Z,97.88
2023-10-27T10:03:48.352Z,97.43
2023-10-27T10:04:53.258Z,97.96
2023-10-27T10:06:31.113Z,97.88
2023-10-27T10:07:53.565Z,97.13
2023-10-27T10:09:10.805Z,97.14
2023-10-27T10:10:28.156Z,97.70
2023-10-27T10:11:38.613Z,97.55
2023-10-27T10:13:04.374Z,97.43
2023-10-27T10:14:06.576Z,97.09
2023-10-27T10:15:10.117Z,96.91
2023-10-27T10:16:13.986Z,96.78
2023-10-27T10:17:38.901Z,97.31
2023-10-27T10:18:50.732Z,97.56
2023-10-27T10:19:56.285Z,97.63
2023-10-27T10:20:59.039Z,97.53
2023-10-27T10:22:02.312Z,97.57
2023-10-27T10:23:05.128Z,97.17
2023-10-27T10:24:11.468Z,95.57
2023-10-27T10:25:16.469Z,95.94
2023-10-27T10:26:18.538Z,95.96
2023-10-27T10:27:20.764Z,96.20
2023-10-27T10:28:25.592Z,95.67
2023-10-27T10:29:33.495Z,95.85
2023-10-27T10:30:42.826Z,96.28
2023-10-27T10:31:45.203Z,95.96
2023-10-27T10:32:47.254Z,95.93
2023-10-27T10:33:50.791Z,96.38
2023-10-27T10:35:22.529Z,96.15
2023-10-27T10:36:27.016Z,96.09
2023-10-27T10:37:30.637Z,96.35
2023-10-27T10:38:40.216Z,96.96
2023-10-27T10:40:19.488Z,96.28
2023-10-27T10:41:22.380Z,96.61
2023-10-27T10:42:25.030Z,96.69
2023-10-27T10:43:43.548Z,96.82
2023-10-27T10:44:45.979Z,96.46
2023-10-27T10:45:55.025Z,96.40
2023-10-27T10:46:57.361Z,96.61
2023-10-27T10:48:00.413Z,96.82
2023-10-27T10:49:03.188Z,97.12
2023-10-27T10:50:05.565Z,96.68
2023-10-27T10:51:17.680Z,96.80
2023-10-27T10:52:22.765Z,96.97
2023-10-27T10:53:27.481Z,96.86
2023-10-27T10:54:32.378Z,96.83
2023-10-27T10:55:34.759Z,97.16
2023-10-27T10:56:37.428Z,96.74
2023-10-27T10:57:39.644Z,97.15
2023-10-27T10:58:42.301Z,96.69
2023-10-27T10:59:54.459Z,96.72
2023-10-27T11:00:58.484Z,96.54
2023-10-27T11:02:00.543Z,97.02
2023-10-27T11:03:09.953Z,97.11
2023-10-27T11:04:11.989Z,97.17
2023-10-27T11:05:26.463Z,96.76
2023-10-27T11:06:29.931Z,96.80
2023-10-27T11:07:32.645Z,97.30
2023-10-27T11:08:38.925Z,97.24
2023-10-27T11:09:41.071Z,97.45
2023-10-27T11:10:43.600Z,97.84
2023-10-27T11:11:48.296Z,97.38
2023-10-27T11:12:50.986Z,97.95
2023-10-27T11:13:54.285Z,97.72
2023-10-27T11:14:56.241Z,97.65
2023-10-27T11:15:58.136Z,97.27
2023-10-27T11:17:01.709Z,97.01
2023-10-27T11:18:12.819Z,97.79
2023-10-27T11:19:20.397Z,97.63
2023-10-27T11:20:38.945Z,97.23
2023-10-27T11:21:40.980Z,97.94
2023-10-27T11:22:42.987Z,97.70
2023-10-27T11:23:46.184Z,98.03
2023-10-27T11:24:48.134Z,97.75
2023-10-27T11:25:50.085Z,98.01
2023-10-27T11:26:52.362Z,97.57
2023-10-27T11:27:54.280Z,98.24
2023-10-27T11:28:57.056Z,97.86
2023-10-27T11:30:00.730Z,97.84
2023-10-27T11:31:27.322Z,98.09
2023-10-27T11:32:29.839Z,97.75
2023-10-27T11:33:32.483Z,97.52
2023-10-27T11:34:37.606Z,97.97
2023-10-27T11:35:46.715Z,97.96
2023-10-27T11:37:04.056Z,98.18
2023-10-27T11:38:09.568Z,98.53
2023-10-27T11:39:17.422Z,98.35
2023-10-27T11:40:19.822Z,98.53
2023-10-27T11:41:22.871Z,98.78
2023-10-27T11:42:24.708Z,98.80
2023-10-27T11:43:26.943Z,99.12
2023-10-27T11:44:30.416Z,99.10
2023-10-27T11:45:32.366Z,99.02
2023-10-27T11:46:35.514Z,99.17
2023-10-27T11:47:38.083Z,98.65
2023-10-27T11:48:41.261Z,98.62
2023-10-27T11:49:43.390Z,98.80
2023-10-27T11:50:45.543Z,98.52
2023-10-27T11:51:48.698Z,98.98
2023-10-27T11:52:50.584Z,99.55
2023-10-27T11:53:53.035Z,99.17
2023-10-27T11:54:54.952Z,99.57
2023-10-27T11:55:58.155Z,98.92
2023-10-27T11:57:00.205Z,99.08
2023-10-27T11:58:02.195Z,99.20
2023-10-27T11:59:04.189Z,99.06
2023-10-27T12:00:10.361Z,98.64
2023-10-27T12:01:12.477Z,98.58
2023-10-27T12:02:15.112Z,98.74
2023-10-27T12:03:17.090Z,98.94
2023-10-27T12:04:19.305Z,99.03
2023-10-27T12:05:21.706Z,99.07
2023-10-27T12:06:23.922Z,98.94
2023-10-27T12:07:25.985Z,98.79
2023-10-27T12:08:28.536Z,99.11
2023-10-27T12:09:30.640Z,98.80
2023-10-27T12:10:36.620Z,98.80
2023-10-27T12:11:38.751Z,98.74
2023-10-27T12:12:40.694Z,98.84
2023-10-27T12:13:42.672Z,98.48
2023-10-27T12:14:45.011Z,97.48
2023-10-27T12:15:49.173Z,97.70
2023-10-27T12:16:53.149Z,97.09
2023-10-27T12:17:55.630Z,97.16
2023-10-27T12:18:58.634Z,96.91
2023-10-27T12:20:00.573Z,95.31
2023-10-27T12:21:02.591Z,95.58
2023-10-27T12:22:05.411Z,95.00
2023-10-27T12:23:09.008Z,94.62
2023-10-27T12:24:12.490Z,94.25
2023-10-27T12:25:14.613Z,93.58
2023-10-27T12:26:16.707Z,91.56
2023-10-27T12:27:18.639Z,92.00
2023-10-27T12:28:20.670Z,91.98
2023-10-27T12:29:27.632Z,92.58
2023-10-27T12:30:31.960Z,92.57
2023-10-27T12:31:34.350Z,93.45
2023-10-27T12:32:36.916Z,93.72
2023-10-27T12:33:38.880Z,93.88
2023-10-27T12:34:42.151Z,93.89
2023-10-27T12:35:44.111Z,93.53
2023-10-27T12:36:49.393Z,92.65
2023-10-27T12:37:51.351Z,92.67
2023-10-27T12:38:53.318Z,92.44
2023-10-27T12:39:55.327Z,92.63
2023-10-27T12:40:57.602Z,93.60
2023-10-27T12:41:59.553Z,93.34
2023-10-27T12:43:03.635Z,93.45
2023-10-27T12:44:05.954Z,93.54
2023-10-27T12:45:08.052Z,94.00
2023-10-27T12:46:10.607Z,93.87
2023-10-27T12:47:12.516Z,88.98
2023-10-27T12:48:14.595Z,88.42
2023-10-27T12:49:16.699Z,89.06
2023-10-27T12:50:18.906Z,89.99
2023-10-27T12:51:21.007Z,91.61
2023-10-27T12:52:23.126Z,91.85
2023-10-27T12:53:26.254Z,92.85
2023-10-27T12:54:29.768Z,92.59
2023-10-27T12:55:34.901Z,92.68
2023-10-27T12:56:38.530Z,92.70
2023-10-27T12:57:40.499Z,91.97
2023-10-27T12:58:42.752Z,91.58
2023-10-27T12:59:47.174Z,91.49
2023-10-27T13:00:49.876Z,91.29
2023-10-27T13:01:51.796Z,90.47
2023-10-27T13:02:55.220Z,91.06
2023-10-27T13:03:57.216Z,91.35
2023-10-27T13:05:02.173Z,91.57
2023-10-27T13:06:04.384Z,91.67
2023-10-27T13:07:06.345Z,91.90
2023-10-27T13:08:11.517Z,91.83
2023-10-27T13:09:13.476Z,89.72
2023-10-27T13:10:17.015Z,90.04
2023-10-27T13:11:19.729Z,90.04
2023-10-27T13:12:25.533Z,89.61
2023-10-27T13:13:27.578Z,89.55
2023-10-27T13:14:31.424Z,89.81
2023-10-27T13:15:37.570Z,89.80
2023-10-27T13:16:40.524Z,88.37
2023-10-27T13:17:43.978Z,88.11
2023-10-27T13:18:46.728Z,88.73
2023-10-27T13:19:50.473Z,87.85
2023-10-27T13:20:52.659Z,87.09
2023-10-27T13:21:54.524Z,87.27
2023-10-27T13:22:56.475Z,85.65
2023-10-27T13:23:59.056Z,85.62
2023-10-27T13:25:02.412Z,83.46
2023-10-27T13:26:04.774Z,83.77
2023-10-27T13:27:09.407Z,82.19
2023-10-27T13:28:11.288Z,81.71
2023-10-27T13:29:13.705Z,82.89
2023-10-27T13:30:15.680Z,84.23
2023-10-27T13:31:17.667Z,85.89
2023-10-27T13:32:20.124Z,86.75
2023-10-27T13:33:22.094Z,86.82
2023-10-27T13:34:25.037Z,87.43
2023-10-27T13:35:27.199Z,87.26
2023-10-27T13:36:30.717Z,87.85